createdAt,value
2022-10-14T00:02:55.629Z,13.63
2022-10-14T00:08:17.285Z,14.72
2022-10-14T00:13:43.847Z,15.38
2022-10-14T00:19:06.440Z,12.57
2022-10-14T00:24:30.538Z,13.10
2022-10-14T00:29:55.035Z,13.56
2022-10-14T00:35:21.645Z,11.98
2022-10-14T00:40:47.971Z,11.74
2022-10-14T00:46:09.835Z,14.38
2022-10-14T00:51:36.837Z,14.75
2022-10-14T00:57:01.691Z,12.95
2022-10-14T01:02:28.046Z,13.05
2022-10-14T01:07:55.413Z,12.68
2022-10-14T01:13:18.957Z,13.23
2022-10-14T01:18:47.143Z,15.61
2022-10-14T01:24:19.511Z,11.63
2022-10-14T01:30:02.580Z,12.37
2022-10-14T01:35:31.109Z,11.05
2022-10-14T01:40:56.978Z,12.36
2022-10-14T01:46:22.869Z,12.10
2022-10-14T01:51:49.384Z,12.11
2022-10-14T01:57:11.067Z,15.01
2022-10-14T02:02:32.872Z,12.33
2022-10-14T02:07:57.196Z,13.99
2022-10-14T02:13:26.083Z,13.11
2022-10-14T02:18:58.695Z,11.71
2022-10-14T02:24:25.452Z,10.06
2022-10-14T02:29:51.644Z,10.21
2022-10-14T02:35:15.830Z,12.08
2022-10-14T02:40:38.902Z,11.19
2022-10-14T02:46:04.636Z,10.78
2022-10-14T02:51:30.881Z,11.02
2022-10-14T02:57:01.413Z,13.31
2022-10-14T03:02:26.442Z,11.72
2022-10-14T03:07:52.180Z,14.83
2022-10-14T03:13:19.617Z,12.86
2022-10-14T03:18:46.862Z,11.47
2022-10-14T03:24:12.303Z,18.03
2022-10-14T03:29:38.235Z,12.49
2022-10-14T03:35:04.726Z,12.99
2022-10-14T03:40:31.634Z,11.57
2022-10-14T03:45:58.440Z,11.86
2022-10-14T03:51:25.190Z,13.31
2022-10-14T03:56:51.424Z,15.18
2022-10-14T04:02:15.808Z,14.46
2022-10-14T04:07:40.040Z,13.23
2022-10-14T04:13:02.591Z,13.49
2022-10-14T04:18:30.329Z,14.11
2022-10-14T04:23:57.124Z,14.02
2022-10-14T04:29:24.784Z,13.23
2022-10-14T04:34:48.240Z,13.41
2022-10-14T04:40:13.935Z,13.29
2022-10-14T04:45:37.617Z,11.19
2022-10-14T04:51:04.182Z,18.91
2022-10-14T04:56:26.928Z,14.37
2022-10-14T05:01:52.836Z,13.07
2022-10-14T05:07:15.165Z,12.66
2022-10-14T05:12:40.690Z,13.43
2022-10-14T05:18:07.666Z,12.46
2022-10-14T05:23:31.625Z,13.24
2022-10-14T05:28:56.086Z,11.71
2022-10-14T05:34:20.139Z,14.39
2022-10-14T05:39:42.336Z,14.12
2022-10-14T05:45:03.975Z,15.49
2022-10-14T05:50:33.240Z,15.77
2022-10-14T05:55:55.694Z,17.93
2022-10-14T06:01:27.406Z,17.14
2022-10-14T06:06:55.378Z,17.06
2022-10-14T06:12:16.803Z,16.37
2022-10-14T06:17:40.510Z,18.04
2022-10-14T06:23:08.277Z,15.88
2022-10-14T06:28:35.423Z,17.61
2022-10-14T06:34:03.757Z,16.89
2022-10-14T06:39:30.711Z,15.18
2022-10-14T06:44:55.094Z,14.72
2022-10-14T06:50:25.381Z,14.81
2022-10-14T06:55:53.400Z,16.05
2022-10-14T07:01:21.159Z,15.34
2022-10-14T07:06:48.441Z,14.28
2022-10-14T07:12:21.249Z,17.70
2022-10-14T07:17:53.029Z,11.25
2022-10-14T07:23:22.369Z,13.61
2022-10-14T07:28:47.599Z,12.07
2022-10-14T07:34:11.662Z,14.19
2022-10-14T07:39:39.921Z,10.18
2022-10-14T07:45:16.104Z,15.97
2022-10-14T07:50:42.468Z,12.17
2022-10-14T07:56:13.660Z,12.96
2022-10-14T08:01:39.959Z,10.32
2022-10-14T08:07:03.292Z,9.88
2022-10-14T08:12:32.549Z,10.36
2022-10-14T08:18:02.152Z,8.84
2022-10-14T08:23:34.631Z,9.59
2022-10-14T08:28:58.338Z,13.32
2022-10-14T08:40:14.190Z,7.75
2022-10-14T08:45:40.825Z,10.87
2022-10-14T08:51:08.693Z,8.70
2022-10-14T08:56:34.119Z,8.67
2022-10-14T09:02:13.278Z,8.28
2022-10-14T09:07:55.159Z,9.57
2022-10-14T09:13:20.025Z,6.87
2022-10-14T09:18:50.995Z,7.02
2022-10-14T09:24:16.796Z,7.66
2022-10-14T09:29:43.149Z,6.96
2022-10-14T09:35:10.710Z,7.26
2022-10-14T09:40:38.622Z,5.43
2022-10-14T09:46:07.954Z,7.19
2022-10-14T09:51:35.588Z,6.66
2022-10-14T09:57:01.586Z,4.89
2022-10-14T10:02:30.013Z,5.05
2022-10-14T10:07:58.403Z,5.22
2022-10-14T10:13:21.298Z,3.94
2022-10-14T10:18:50.370Z,5.23
2022-10-14T10:24:17.070Z,3.45
2022-10-14T10:29:45.240Z,4.81
2022-10-14T10:35:10.652Z,5.30
2022-10-14T10:40:43.794Z,4.31
2022-10-14T10:46:14.450Z,4.13
2022-10-14T10:51:58.816Z,3.32
2022-10-14T10:57:23.814Z,3.24
2022-10-14T11:02:49.091Z,5.86
2022-10-14T11:08:22.873Z,4.23
2022-10-14T11:13:55.781Z,3.39
2022-10-14T11:19:25.991Z,3.56
2022-10-14T11:24:52.905Z,4.18
2022-10-14T11:30:19.457Z,7.23
2022-10-14T11:35:49.611Z,5.38
2022-10-14T11:41:18.540Z,3.77
2022-10-14T11:46:46.981Z,5.21
2022-10-14T11:52:12.849Z,4.46
2022-10-14T11:57:39.110Z,4.87
2022-10-14T12:03:06.763Z,5.98
2022-10-14T12:22:03.837Z,3.61
2022-10-14T12:27:26.259Z,4.43
2022-10-14T12:32:52.149Z,4.90
2022-10-14T12:38:19.162Z,4.39
2022-10-14T12:43:52.353Z,4.81
2022-10-14T12:49:32.004Z,4.22
2022-10-14T12:54:58.202Z,4.62
2022-10-14T13:00:26.236Z,5.35
2022-10-14T13:05:52.127Z,6.80
2022-10-14T13:11:44.247Z,5.48
2022-10-14T13:17:24.603Z,6.21
2022-10-14T13:22:59.302Z,5.05
2022-10-14T13:28:37.520Z,5.46
2022-10-14T13:34:03.635Z,4.52
2022-10-14T13:39:52.378Z,4.71
2022-10-14T13:45:13.946Z,5.13
2022-10-14T13:50:42.191Z,5.48
2022-10-14T13:56:07.990Z,4.87
2022-10-14T14:01:35.761Z,6.66
2022-10-14T14:07:18.634Z,6.16
2022-10-14T14:12:29.757Z,6.81
2022-10-14T14:17:56.155Z,3.78
2022-10-14T14:23:21.057Z,4.17
2022-10-14T14:28:48.802Z,3.60
2022-10-14T14:34:12.632Z,4.49
2022-10-14T14:39:34.191Z,4.89
2022-10-14T14:44:59.297Z,4.07
2022-10-14T14:50:30.434Z,4.43
2022-10-14T14:55:51.628Z,4.97
2022-10-14T15:01:18.670Z,4.57
2022-10-14T15:06:51.550Z,4.13
2022-10-14T15:12:20.894Z,5.79
2022-10-14T15:17:44.043Z,3.00
2022-10-14T15:23:08.591Z,3.94
2022-10-14T15:29:04.424Z,3.75
2022-10-14T15:34:41.603Z,4.25
2022-10-14T15:40:09.096Z,5.80
2022-10-14T15:45:36.446Z,3.78
2022-10-14T15:51:03.320Z,3.53
2022-10-14T15:56:31.925Z,5.16
2022-10-14T16:01:58.890Z,4.64
2022-10-14T16:07:24.233Z,5.13
2022-10-14T16:12:45.716Z,4.91
2022-10-14T16:18:12.757Z,3.14
2022-10-14T16:23:34.242Z,4.71
2022-10-14T16:29:03.355Z,3.54
2022-10-14T16:34:29.402Z,4.51
2022-10-14T16:39:56.125Z,5.62
2022-10-14T16:45:18.836Z,5.28
2022-10-14T16:50:47.147Z,5.13
2022-10-14T16:56:12.478Z,3.36
2022-10-14T17:01:34.069Z,4.80
2022-10-14T17:06:59.869Z,4.61
2022-10-14T17:12:27.732Z,4.47
2022-10-14T17:17:49.365Z,4.58
2022-10-14T17:23:12.802Z,3.51
2022-10-14T17:28:39.534Z,6.61
2022-10-14T17:34:01.117Z,4.84
2022-10-14T17:39:29.447Z,4.89
2022-10-14T17:44:49.786Z,3.47
2022-10-14T17:50:16.247Z,2.74
2022-10-14T17:55:43.174Z,4.18
2022-10-14T18:01:11.397Z,4.60
2022-10-14T18:06:35.642Z,3.17
2022-10-14T18:12:09.271Z,2.82
2022-10-14T18:17:28.294Z,3.92
2022-10-14T18:22:53.077Z,3.86
2022-10-14T18:28:20.036Z,5.57
2022-10-14T18:33:45.231Z,4.35
2022-10-14T18:39:06.731Z,3.94
2022-10-14T18:44:34.370Z,4.10
2022-10-14T18:49:59.228Z,4.48
2022-10-14T18:55:24.772Z,4.60
2022-10-14T19:00:49.795Z,4.63
2022-10-14T19:06:15.630Z,4.95
2022-10-14T19:11:42.460Z,7.36
2022-10-14T19:17:16.858Z,3.23
2022-10-14T19:22:40.371Z,2.51
2022-10-14T19:28:06.460Z,2.88
2022-10-14T19:33:44.930Z,2.83
2022-10-14T19:39:10.247Z,2.58
2022-10-14T19:44:35.371Z,2.40
2022-10-14T19:50:01.422Z,3.88
2022-10-14T19:55:29.122Z,4.01
2022-10-14T20:00:54.680Z,2.48
2022-10-14T20:06:24.164Z,3.69
2022-10-14T20:11:49.137Z,4.96
2022-10-14T20:17:16.409Z,3.69
2022-10-14T20:22:43.848Z,2.80
2022-10-14T20:28:12.164Z,2.60
2022-10-14T20:33:40.134Z,3.95
2022-10-14T20:39:07.987Z,1.30
2022-10-14T20:44:34.411Z,0.98
2022-10-14T20:49:57.391Z,1.20
2022-10-14T20:55:22.497Z,1.19
2022-10-14T21:00:53.811Z,0.94
2022-10-14T21:06:26.516Z,1.06
2022-10-14T21:11:47.528Z,2.88
2022-10-14T21:17:16.582Z,1.50
2022-10-14T21:22:41.551Z,1.24
2022-10-14T21:28:09.877Z,1.58
2022-10-14T21:33:36.909Z,0.92
2022-10-14T21:39:00.573Z,0.66
2022-10-14T21:44:28.620Z,0.59
2022-10-14T21:49:52.902Z,0.47
2022-10-14T21:55:21.770Z,0.63
2022-10-14T22:00:47.980Z,1.19
2022-10-14T22:06:19.647Z,0.67
2022-10-14T22:11:40.613Z,1.70
2022-10-14T22:17:08.573Z,1.00
2022-10-14T22:22:36.294Z,2.05
2022-10-14T22:28:01.299Z,1.25
2022-10-14T22:33:23.773Z,1.34
2022-10-14T22:38:49.299Z,0.94
2022-10-14T22:44:16.365Z,1.24
2022-10-14T22:49:41.917Z,1.20
2022-10-14T22:55:09.887Z,1.24
2022-10-14T23:05:59.488Z,1.46
2022-10-14T23:11:25.469Z,1.33
2022-10-14T23:16:53.458Z,1.42
2022-10-14T23:22:21.177Z,1.06
2022-10-14T23:27:47.928Z,1.74
2022-10-14T23:33:14.971Z,3.18
2022-10-14T23:38:41.941Z,1.20
2022-10-14T23:44:10.351Z,0.89
2022-10-14T23:49:38.288Z,1.03
2022-10-14T23:55:05.450Z,1.27
